Friday, October 19, 2018, 11:10 AM GMT
Back to Local

CYYY, Mont Joli, Que.

Location: , , Canada Lat: 48.6
Local Time: 11:10 AM GMT (11:10 GMT) Lon: -68.217
Time Zone: GMT Elev: 157 ft

Show me the last for .
Show Decoded

2018-10-19 10:01 METAR CYYY 191001Z 32008KT 30SM FEW029 BKN170 M02/M08 A3002 RMK CU2AC3 SLP172 =
2018-10-19 10:00 METAR CYYY 191000Z 31008KT 30SM FEW029 SCT170 M02/M08 A3002 RMK CU2AC2 SLP172 =
2018-10-19 09:00 METAR CYYY 190900Z 31009KT 30SM FEW028 BKN180 M02/M07 A3002 RMK SC2AC3 SLP172 =
2018-10-19 08:00 METAR CYYY 190800Z 31012G17KT 30SM FEW100 M02/M08 A3002 RMK AC1 SLP170 =
2018-10-19 07:00 METAR CYYY 190700Z 31016KT 30SM FEW030 FEW120 M02/M07 A3002 RMK SC1AC1 SLP168 =
2018-10-19 06:00 METAR CYYY 190600Z 31017G24KT 30SM FEW029 SCT150 M01/M07 A3001 RMK SC1AC3 SLP166
                 =
2018-10-19 05:00 METAR CYYY 190500Z 31017G24KT 30SM FEW120 M01/M07 A3001 RMK AC1 SLP167 =
2018-10-19 04:00 METAR CYYY 190400Z 30018G25KT 30SM FEW100 M01/M06 A3001 RMK AC2 SLP168 =
2018-10-19 03:00 METAR CYYY 190300Z 30017G23KT 30SM FEW040 SCT100 M00/M06 A3001 RMK CU2AC1 SLP168
                 =
2018-10-19 02:00 METAR CYYY 190200Z 29019G25KT 30SM FEW040 SCT100 M00/M05 A3001 RMK CU1AC3 SLP166
                 =
2018-10-19 01:00 METAR CYYY 190100Z 29019G26KT 30SM FEW035TCU BKN100 M00/M04 A3000 RMK TCU1AC5
                 SLP163 =
2018-10-19 00:00 METAR CYYY 190000Z 29018G28KT 30SM FEW040TCU BKN098 M00/M04 A2998 RMK TCU1AC6
                 SLP157 =
2018-10-18 23:00 METAR CYYY 182300Z 29019G26KT 30SM FEW040TCU BKN110 00/M04 A2996 RMK TCU1AC5
                 SLP150 =
2018-10-18 22:43 METAR CYYY 182243Z 29020G29KT 30SM FEW040TCU BKN100 00/M04 A2995 RMK TCU2AC4
                 SLP146 =
2018-10-18 22:00 METAR CYYY 182200Z 30023G33KT 15SM -SHSN FEW038TCU BKN100 01/M05 A2993 RMK
                 TCU2AC4 SLP138 =
2018-10-18 21:11 METAR CYYY 182111Z 31026G36KT 10SM -SHSN SCT038TCU BKN080 00/M02 A2991 RMK
                 TCU4AC3 SLP133 =
2018-10-18 21:00 METAR CYYY 182100Z 29013G20KT 15SM FEW030TCU BKN055 01/M03 A2991 RMK TCU1SC6
                 PRESRR SLP132 =
2018-10-18 20:50 METAR CYYY 182050Z 29015G24KT 30SM R06/5000VP6000FT/U FEW045TCU SCT100 00/M02
                 A2990 RMK TCU2AC2 SLP129 =
2018-10-18 20:44 METAR CYYY 182044Z 28019G27KT 10SM R06/2800V6000FT/U -SHSN SCT045TCU BKN070
                 M00/M02 A2989 RMK SN1TCU3AC2 VIS LWR S SLP125 =
2018-10-18 20:39 METAR CYYY 182039Z 29020G31KT 3SM R06/2800VP6000FT/D -SHSN BKN044TCU BKN070
                 M00/M02 A2988 RMK SN2TCU3AC1 SLP124 =
2018-10-18 20:34 METAR CYYY 182034Z 31021G31KT 1SM R06/3500VP6000FT/D -SHSN BKN043TCU BKN070
                 00/M02 A2989 RMK SN2TCU3AC2 SLP127 =
2018-10-18 20:29 METAR CYYY 182029Z 29022G29KT 15SM -SHSN BKN043TCU BKN070 01/M02 A2989 RMK
                 SN2TCU3AC2 VIS LWR N PRESRR SLP126 =
2018-10-18 20:00 METAR CYYY 182000Z 28021G29KT 30SM VCSH SCT050TCU BKN075 01/M03 A2987 RMK
                 TCU3AC2 SLP119 =
2018-10-18 19:27 METAR CYYY 181927Z 29021G27KT 30SM VCSH SCT050TCU BKN070 02/M04 A2986 RMK
                 TCU4AC3 SLP115 =
2018-10-18 19:09 METAR CYYY 181909Z 30026G34KT 30SM -SHSN FEW050 BKN070 02/M05 A2986 RMK SC2AC5
                 TCU ASOCT SLP114 =
2018-10-18 19:00 METAR CYYY 181900Z 33020KT 30SM FEW042 BKN070 03/M06 A2985 RMK SC2AC5 VIRGA
                 SLP111 =
2018-10-18 18:00 METAR CYYY 181800Z 31019G27KT 30SM BKN075 04/M07 A2983 RMK AC7 SLP105 =
2018-10-18 17:00 METAR CYYY 181700Z 32021KT 30SM OVC060 03/M07 A2982 RMK SC8 SLP102 =
2018-10-18 16:00 METAR CYYY 181600Z 31021G31KT 30SM OVC050 02/M06 A2981 RMK SC8 SLP100 =
2018-10-18 15:00 METAR CYYY 181500Z 31021G26KT 30SM OVC045 02/M07 A2980 RMK SC8 SLP096 =
2018-10-18 14:00 METAR CYYY 181400Z 31018G25KT 30SM BKN044 OVC100 02/M06 A2978 RMK SC7AC1 SLP090
                 =
2018-10-18 13:00 METAR CYYY 181300Z 31022G29KT 30SM BKN045 OVC100 01/M06 A2976 RMK SC7AC1 SLP081
                 =
2018-10-18 12:00 METAR CYYY 181200Z 31024G33KT 30SM BKN040 OVC100 01/M06 A2973 RMK SC7AC1 SLP071
                 =
2018-10-18 11:16 METAR CYYY 181116Z 32027G34KT 30SM BKN044 OVC100 01/M06 A2970 RMK SC7AC1 SLP063
                 =

Support USWX by starting your Amazon purchase here.